KSZL/SZL METAR and TAF weather

Enter ICAO airport designator
Station Type Date Time Source
KSZL METAR 2022/11/26 07:55 UTC NOAA

KSZL 260755Z AUTO 18004KT 1 5/8SM HZ CLR M01/M04 A3012 RMK AO2 SLP207 TMP M04C RWY 01 T10121037 $


Station Type Date Time Source
KSZL Decoded METAR 2022/11/26 07:55 UTC NOAA

Whiteman Air Force Base, MO, United States (KSZL) 38-44N 093-33W
Nov 26, 2022 - 02:55 AM EST / 2022.11.26 0755 UTC
Wind: from the S (180 degrees) at 5 MPH (4 KT):0
Visibility: 1 5/8 mile(s):0
Sky conditions: clear
Weather: haze
Temperature: 29.8 F (-1.2 C)
Windchill: 24 F (-4 C):1
Dew Point: 25.3 F (-3.7 C)
Relative Humidity: 83%
Pressure (altimeter): 30.12 in. Hg (1019 hPa)
ob: KSZL 260755Z AUTO 18004KT 1 5/8SM HZ CLR M01/M04 A3012 RMK AO2 SLP207 TMP M04C RWY 01 T10121037
cycle: 8

Station Type Date Time Source
KSZL TAF 2022/11/23 19:12 UTC NOAA

TAF KSZL 231900Z 2319/2501 21012G18KT 9999 BKN200 QNH2998INS
BECMG 2322/2323 20009KT 9999 BKN040 BKN250 QNH2999INS
BECMG 2409/2410 18009KT 9999 BKN012 OVC040 QNH3004INS
BECMG 2418/2420 32012KT 9999 SCT012 BKN030 QNH3012INS TX15/2321Z TN07/2412Z LAST NO
AMDS AFT 2322 NEXT 2811

Example: see airport list